Time;durP1;ratioP1;P1;durP2;ratioP2;P2;SDS_P1;SDS_P2;PMS_P1;PMS_P2;Temp;Humidity;BMP_temperature;BMP_pressure;BME280_temperature;BME280_humidity;BME280_pressure;Samples;Min_cycle;Max_cycle;Signal;HPM_P1;HPM_P2
2023/05/19 00:01:13;;;;;;;9.73;3.75;;;10.70;99.90;;;;;;5023954;28;20033;-87
2023/05/19 00:03:51;;;;;;;13.38;4.50;;;10.60;99.90;;;;;;5021981;28;20042;-87
2023/05/19 00:06:23;;;;;;;17.55;4.07;;;10.60;99.90;;;;;;5012617;28;20045;-86
2023/05/19 00:08:54;;;;;;;9.02;2.78;;;10.60;99.90;;;;;;5015983;28;20073;-87
2023/05/19 00:11:21;;;;;;;9.02;3.65;;;10.60;99.90;;;;;;5015680;28;20120;-87
2023/05/19 00:13:48;;;;;;;10.23;4.43;;;10.50;99.90;;;;;;5010507;28;20104;-86
2023/05/19 00:16:14;;;;;;;13.02;3.58;;;10.50;99.90;;;;;;5014233;28;20133;-87
2023/05/19 00:18:40;;;;;;;12.15;4.53;;;10.50;99.90;;;;;;5016897;28;20091;-86
2023/05/19 00:21:06;;;;;;;8.63;3.67;;;10.50;99.90;;;;;;5014619;28;20559;-86
2023/05/19 00:23:31;;;;;;;9.55;4.00;;;10.40;99.90;;;;;;5014072;28;20045;-87
2023/05/19 00:25:57;;;;;;;7.97;3.15;;;10.40;99.90;;;;;;5019928;28;20038;-85
2023/05/19 00:28:23;;;;;;;12.75;4.43;;;10.40;99.90;;;;;;5012486;28;20486;-85
2023/05/19 00:30:50;;;;;;;7.95;3.58;;;10.40;99.90;;;;;;5015803;28;20038;-85
2023/05/19 00:33:15;;;;;;;8.15;3.38;;;10.40;99.90;;;;;;5012399;28;20481;-84
2023/05/19 00:35:41;;;;;;;8.85;3.15;;;10.30;99.90;;;;;;5019216;28;20054;-84
2023/05/19 00:38:06;;;;;;;11.35;3.58;;;10.30;99.90;;;;;;5010091;28;20038;-84
2023/05/19 00:40:35;;;;;;;11.57;3.47;;;10.30;99.90;;;;;;5010171;28;20690;-84
2023/05/19 00:43:01;;;;;;;9.70;3.50;;;10.30;99.90;;;;;;5012598;28;20041;-84
2023/05/19 00:45:27;;;;;;;13.68;3.80;;;10.30;99.90;;;;;;5017618;28;20160;-84
2023/05/19 00:47:53;;;;;;;9.30;3.53;;;10.30;99.90;;;;;;5010763;28;20091;-85
2023/05/19 00:50:19;;;;;;;9.57;4.03;;;10.30;99.90;;;;;;5016529;28;20405;-85
2023/05/19 00:52:44;;;;;;;13.13;4.20;;;10.30;99.90;;;;;;5012373;28;20049;-85
2023/05/19 00:55:11;;;;;;;7.13;2.83;;;10.30;99.90;;;;;;5009839;28;20052;-84
2023/05/19 00:57:37;;;;;;;10.70;3.92;;;10.20;99.90;;;;;;5010079;28;20092;-85
2023/05/19 01:00:04;;;;;;;10.20;4.00;;;10.20;99.90;;;;;;5014824;28;20049;-85
2023/05/19 01:02:31;;;;;;;16.52;4.68;;;10.20;99.90;;;;;;5017146;28;20545;-85
2023/05/19 01:04:57;;;;;;;9.57;3.50;;;10.10;99.90;;;;;;5012312;28;20084;-84
2023/05/19 01:07:24;;;;;;;8.95;3.17;;;10.10;99.90;;;;;;5005548;28;20107;-84
2023/05/19 01:09:50;;;;;;;11.05;3.65;;;10.10;99.90;;;;;;5008152;28;20042;-85
2023/05/19 01:12:16;;;;;;;12.68;3.97;;;10.00;99.90;;;;;;5010250;28;20083;-85
2023/05/19 01:14:42;;;;;;;7.78;3.72;;;10.00;99.90;;;;;;5009793;28;20034;-85
2023/05/19 01:17:21;;;;;;;14.57;4.32;;;10.00;99.90;;;;;;5015960;28;20042;-84
2023/05/19 01:20:05;;;;;;;14.85;3.78;;;10.00;99.90;;;;;;5017315;28;20069;-84
2023/05/19 01:22:55;;;;;;;9.18;3.35;;;10.00;99.90;;;;;;5009820;28;20061;-84
2023/05/19 01:26:03;;;;;;;12.50;4.03;;;9.90;99.90;;;;;;5008677;28;20508;-84
2023/05/19 01:29:03;;;;;;;11.65;4.57;;;9.90;99.90;;;;;;5017390;28;20034;-84
2023/05/19 01:31:30;;;;;;;10.57;3.83;;;9.90;99.90;;;;;;5017007;28;20041;-84
2023/05/19 01:33:56;;;;;;;13.32;3.92;;;9.90;99.90;;;;;;5012003;28;20045;-85
2023/05/19 01:36:24;;;;;;;13.63;5.07;;;9.90;99.90;;;;;;5009517;28;20038;-85
2023/05/19 01:38:52;;;;;;;12.23;4.03;;;9.80;99.90;;;;;;5009473;28;20025;-84
2023/05/19 01:41:21;;;;;;;12.15;4.78;;;9.80;99.90;;;;;;5014636;28;20045;-84
2023/05/19 01:43:48;;;;;;;9.63;3.25;;;9.80;99.90;;;;;;5014307;28;20087;-84
2023/05/19 01:46:15;;;;;;;7.85;3.33;;;9.80;99.90;;;;;;5014792;28;20049;-85
2023/05/19 01:48:42;;;;;;;10.98;4.25;;;9.80;99.90;;;;;;5010390;28;20215;-84
2023/05/19 01:51:07;;;;;;;9.65;3.90;;;9.70;99.90;;;;;;5009077;28;20528;-85
2023/05/19 01:53:33;;;;;;;9.10;3.25;;;9.70;99.90;;;;;;5012962;28;20137;-85
2023/05/19 01:55:59;;;;;;;14.57;4.50;;;9.70;99.90;;;;;;5009512;28;20162;-85
2023/05/19 01:58:44;;;;;;;10.10;3.63;;;9.70;99.90;;;;;;5015929;28;20061;-85
2023/05/19 02:01:40;;;;;;;10.82;4.05;;;9.70;99.90;;;;;;5015230;28;20034;-84
2023/05/19 02:04:38;;;;;;;9.45;3.47;;;9.70;99.90;;;;;;5015542;28;20076;-84
2023/05/19 02:07:43;;;;;;;9.52;3.88;;;9.70;99.90;;;;;;5007468;28;20046;-84
2023/05/19 02:10:21;;;;;;;7.40;2.97;;;9.70;99.90;;;;;;5008248;28;20077;-84
2023/05/19 02:12:52;;;;;;;9.32;3.95;;;9.80;99.90;;;;;;5009154;28;20042;-85
2023/05/19 02:15:25;;;;;;;7.90;3.47;;;9.60;99.90;;;;;;5012066;28;20046;-84
2023/05/19 02:17:54;;;;;;;12.48;3.50;;;9.60;99.90;;;;;;5008902;28;20451;-85
2023/05/19 02:20:21;;;;;;;8.63;3.10;;;9.50;99.90;;;;;;5012064;28;20152;-85
2023/05/19 02:22:47;;;;;;;10.85;4.05;;;9.50;99.90;;;;;;5008199;28;20500;-84
2023/05/19 02:25:13;;;;;;;11.63;4.00;;;9.50;99.90;;;;;;5009207;28;20038;-85
2023/05/19 02:27:40;;;;;;;10.40;3.60;;;9.50;99.90;;;;;;5011790;28;20040;-84
2023/05/19 02:30:07;;;;;;;13.27;3.78;;;9.50;99.90;;;;;;5013617;28;20549;-85
2023/05/19 02:32:33;;;;;;;13.95;4.28;;;9.50;99.90;;;;;;5012667;28;20042;-84
2023/05/19 02:34:59;;;;;;;10.18;4.47;;;9.50;99.90;;;;;;5012488;28;20048;-84
2023/05/19 02:37:27;;;;;;;13.93;3.92;;;9.50;99.90;;;;;;5012299;28;20404;-84
2023/05/19 02:39:53;;;;;;;13.07;3.72;;;9.40;99.90;;;;;;5012450;28;20038;-84
2023/05/19 02:42:20;;;;;;;11.38;3.22;;;9.40;99.90;;;;;;5012767;28;20042;-84
2023/05/19 02:44:45;;;;;;;8.30;3.17;;;9.40;99.90;;;;;;5012794;28;20030;-84
2023/05/19 02:47:12;;;;;;;13.43;4.03;;;9.40;99.90;;;;;;5014640;28;20041;-84
2023/05/19 02:49:37;;;;;;;9.25;3.13;;;9.30;99.90;;;;;;5012459;28;20030;-84
2023/05/19 02:52:04;;;;;;;13.45;3.97;;;9.40;99.90;;;;;;5010460;28;20057;-84
2023/05/19 02:54:30;;;;;;;9.10;3.78;;;9.30;99.90;;;;;;5011382;28;20045;-84
2023/05/19 02:56:56;;;;;;;7.72;3.42;;;9.30;99.90;;;;;;5012187;28;20042;-84
2023/05/19 02:59:22;;;;;;;10.90;3.75;;;9.20;99.90;;;;;;5012447;28;20539;-84
2023/05/19 03:01:47;;;;;;;8.05;2.58;;;9.20;99.90;;;;;;5016304;28;20677;-84
2023/05/19 03:04:13;;;;;;;10.98;3.90;;;9.20;99.90;;;;;;5014580;28;20050;-85
2023/05/19 03:06:39;;;;;;;9.30;3.25;;;9.20;99.90;;;;;;5011833;28;20140;-84
2023/05/19 03:09:05;;;;;;;8.05;3.35;;;9.20;99.90;;;;;;5010529;28;20092;-85
2023/05/19 03:11:30;;;;;;;15.07;4.10;;;9.20;99.90;;;;;;5012569;28;20501;-84
2023/05/19 03:13:57;;;;;;;11.77;3.20;;;9.20;99.90;;;;;;5018037;28;20041;-84
2023/05/19 03:16:23;;;;;;;11.38;3.75;;;9.20;99.90;;;;;;5023871;28;20483;-84
2023/05/19 03:18:48;;;;;;;7.13;2.58;;;9.20;99.90;;;;;;5015089;28;20034;-84
2023/05/19 03:21:14;;;;;;;10.05;3.28;;;9.10;99.90;;;;;;5014174;28;20400;-84
2023/05/19 03:23:40;;;;;;;9.52;3.30;;;9.10;99.90;;;;;;5013488;28;20477;-84
2023/05/19 03:26:05;;;;;;;14.38;4.55;;;9.10;99.90;;;;;;5015222;28;20048;-84
2023/05/19 03:28:31;;;;;;;7.47;2.70;;;9.10;99.90;;;;;;5011607;28;20034;-84
2023/05/19 03:30:56;;;;;;;6.57;2.35;;;9.10;99.90;;;;;;4998346;28;20042;-83
2023/05/19 03:33:22;;;;;;;11.35;3.60;;;9.10;99.90;;;;;;5015746;28;20052;-84
2023/05/19 03:35:48;;;;;;;11.55;4.00;;;9.10;99.90;;;;;;5013560;28;20038;-84
2023/05/19 03:38:14;;;;;;;8.68;3.40;;;9.10;99.90;;;;;;5012141;28;20049;-84
2023/05/19 03:40:40;;;;;;;10.02;3.00;;;9.10;99.90;;;;;;5012664;28;20053;-84
2023/05/19 03:43:06;;;;;;;10.18;3.17;;;9.00;99.90;;;;;;5015388;28;20045;-84
2023/05/19 03:45:32;;;;;;;6.13;2.20;;;9.00;99.90;;;;;;5017294;28;20045;-85
2023/05/19 03:47:58;;;;;;;11.95;3.92;;;9.00;99.90;;;;;;5013331;28;20112;-84
2023/05/19 03:50:23;;;;;;;8.45;2.95;;;9.00;99.90;;;;;;5013934;28;20081;-84
2023/05/19 03:52:49;;;;;;;11.18;3.22;;;9.00;99.90;;;;;;5013250;28;20052;-85
2023/05/19 03:55:15;;;;;;;5.93;2.20;;;9.00;99.90;;;;;;5025739;28;20049;-84
2023/05/19 03:57:42;;;;;;;7.63;2.97;;;9.00;99.90;;;;;;5012819;28;20067;-85
2023/05/19 04:00:10;;;;;;;8.27;3.00;;;8.90;99.90;;;;;;5015652;28;20097;-85
2023/05/19 04:02:35;;;;;;;8.35;3.50;;;9.00;99.90;;;;;;5014303;28;20937;-84
2023/05/19 04:05:03;;;;;;;10.00;3.13;;;9.00;99.90;;;;;;5010548;28;20081;-84
2023/05/19 04:07:29;;;;;;;9.32;3.47;;;9.00;99.90;;;;;;5011188;28;20119;-84
2023/05/19 04:09:56;;;;;;;7.57;3.50;;;8.90;99.90;;;;;;5009991;28;20096;-84
2023/05/19 04:12:22;;;;;;;11.70;3.40;;;9.00;99.90;;;;;;5011021;28;20500;-85
2023/05/19 04:14:47;;;;;;;9.68;3.28;;;8.90;99.90;;;;;;5010924;28;20042;-84
2023/05/19 04:17:13;;;;;;;10.68;4.60;;;9.00;99.90;;;;;;5014051;28;20057;-84
2023/05/19 04:19:39;;;;;;;9.00;3.80;;;9.00;99.90;;;;;;5013417;28;20042;-85
2023/05/19 04:22:04;;;;;;;11.15;3.60;;;9.00;99.90;;;;;;4994082;28;20050;-84
2023/05/19 04:24:30;;;;;;;15.73;4.03;;;8.90;99.90;;;;;;5010847;28;20548;-84
2023/05/19 04:27:01;;;;;;;8.15;3.35;;;9.00;99.90;;;;;;5010428;28;20077;-84
2023/05/19 04:29:29;;;;;;;13.20;5.25;;;9.00;99.90;;;;;;5011990;28;20092;-85
2023/05/19 04:31:56;;;;;;;8.25;3.72;;;9.20;99.90;;;;;;5010893;28;20476;-84
2023/05/19 04:34:21;;;;;;;11.23;3.85;;;9.00;99.90;;;;;;5016205;28;20049;-84
2023/05/19 04:36:47;;;;;;;12.70;5.22;;;8.90;99.90;;;;;;5017964;28;20088;-84
2023/05/19 04:39:14;;;;;;;12.82;4.15;;;8.90;99.90;;;;;;5010400;28;20042;-84
2023/05/19 04:41:40;;;;;;;12.70;5.13;;;8.90;99.90;;;;;;5013008;28;20116;-84
2023/05/19 04:44:08;;;;;;;11.20;4.22;;;8.90;99.90;;;;;;5011801;28;20038;-85
2023/05/19 04:46:33;;;;;;;12.30;5.13;;;9.00;99.90;;;;;;5011267;28;20061;-85
2023/05/19 04:49:00;;;;;;;7.43;3.38;;;9.00;99.90;;;;;;5009406;28;20038;-85
2023/05/19 04:51:27;;;;;;;9.50;4.25;;;9.00;99.90;;;;;;5009088;28;20547;-85
2023/05/19 04:53:54;;;;;;;8.68;3.67;;;9.00;99.90;;;;;;5011909;28;20049;-86
2023/05/19 04:56:20;;;;;;;11.27;4.35;;;9.00;99.90;;;;;;5010741;28;20116;-86
2023/05/19 04:58:47;;;;;;;11.52;4.03;;;9.00;99.90;;;;;;5009702;28;20092;-86
2023/05/19 05:01:12;;;;;;;11.15;3.00;;;9.10;99.90;;;;;;5010046;28;20454;-86
2023/05/19 05:03:38;;;;;;;16.52;5.25;;;9.10;99.90;;;;;;5011969;28;20125;-85
2023/05/19 05:06:05;;;;;;;11.93;4.90;;;9.10;99.90;;;;;;5010162;28;20030;-86
2023/05/19 05:08:30;;;;;;;11.85;4.55;;;9.10;99.90;;;;;;5022564;28;20225;-86
2023/05/19 05:10:56;;;;;;;11.13;3.90;;;9.10;99.90;;;;;;5008306;28;20547;-86
2023/05/19 05:13:23;;;;;;;12.25;4.38;;;9.10;99.90;;;;;;4993157;28;20123;-85
2023/05/19 05:15:50;;;;;;;13.48;6.32;;;9.20;99.90;;;;;;5008240;28;20049;-85
2023/05/19 05:18:16;;;;;;;11.23;5.40;;;9.20;99.90;;;;;;5012832;28;20449;-86
2023/05/19 05:20:43;;;;;;;17.38;5.05;;;9.20;99.90;;;;;;5009645;28;20090;-86
2023/05/19 05:23:13;;;;;;;10.57;4.55;;;9.20;99.90;;;;;;5009367;28;20113;-86
2023/05/19 05:25:39;;;;;;;17.98;5.88;;;9.30;99.90;;;;;;5009957;28;20057;-86
2023/05/19 05:28:05;;;;;;;13.52;4.85;;;9.30;99.90;;;;;;5013124;28;20045;-86
2023/05/19 05:30:32;;;;;;;19.30;6.40;;;9.30;99.90;;;;;;5009794;28;20447;-85
2023/05/19 05:32:58;;;;;;;20.15;6.65;;;9.30;99.90;;;;;;5013794;28;20069;-85
2023/05/19 05:35:24;;;;;;;20.95;7.28;;;9.40;99.90;;;;;;5009651;28;20072;-86
2023/05/19 05:37:49;;;;;;;13.77;6.32;;;9.40;99.90;;;;;;5009321;28;20560;-85
2023/05/19 05:40:15;;;;;;;14.90;5.80;;;9.40;99.90;;;;;;5009508;28;20041;-86
2023/05/19 05:42:42;;;;;;;18.55;7.30;;;9.50;99.90;;;;;;5009486;28;20080;-87
2023/05/19 05:45:08;;;;;;;19.63;7.47;;;9.50;99.90;;;;;;5014889;28;20038;-86
2023/05/19 05:47:36;;;;;;;20.45;7.72;;;9.50;99.90;;;;;;5009184;28;20488;-86
2023/05/19 05:50:03;;;;;;;18.83;7.63;;;9.60;99.90;;;;;;5010926;28;20034;-86
2023/05/19 05:52:31;;;;;;;19.35;6.80;;;9.60;99.90;;;;;;5009361;28;20045;-86
2023/05/19 05:54:57;;;;;;;20.10;6.70;;;9.60;99.90;;;;;;5008916;28;20038;-86
2023/05/19 05:57:22;;;;;;;11.23;4.97;;;9.60;99.90;;;;;;5009296;28;20049;-86
2023/05/19 05:59:49;;;;;;;14.00;6.15;;;9.70;99.90;;;;;;5007202;28;20448;-86
2023/05/19 06:02:16;;;;;;;11.77;5.10;;;9.70;99.90;;;;;;5009561;28;20076;-86
2023/05/19 06:04:42;;;;;;;17.92;6.05;;;9.70;99.90;;;;;;5013979;28;20034;-86
2023/05/19 06:07:08;;;;;;;13.93;5.28;;;9.70;99.90;;;;;;5008787;28;20034;-87
2023/05/19 06:09:34;;;;;;;14.75;7.45;;;9.80;99.90;;;;;;5010707;28;20062;-85
2023/05/19 06:12:00;;;;;;;18.25;6.45;;;9.80;99.90;;;;;;5006579;28;20461;-86
2023/05/19 06:14:26;;;;;;;19.27;5.60;;;9.80;99.90;;;;;;5018925;28;20030;-86
2023/05/19 06:16:51;;;;;;;10.57;5.68;;;9.80;99.90;;;;;;5015998;28;20052;-87
2023/05/19 06:19:18;;;;;;;11.75;5.05;;;9.80;99.90;;;;;;5015105;28;20042;-87
2023/05/19 06:21:44;;;;;;;14.02;6.70;;;9.90;99.90;;;;;;5018385;28;20049;-86
2023/05/19 06:24:10;;;;;;;18.52;7.47;;;9.90;99.90;;;;;;5018073;28;20089;-83
2023/05/19 06:26:35;;;;;;;17.40;7.35;;;10.00;99.90;;;;;;5012068;28;20103;-84
2023/05/19 06:29:01;;;;;;;14.05;7.38;;;10.00;99.90;;;;;;5016522;28;20065;-84
2023/05/19 06:31:27;;;;;;;9.48;5.53;;;10.00;99.90;;;;;;5013572;28;20156;-86
2023/05/19 06:33:53;;;;;;;15.88;6.60;;;10.00;99.90;;;;;;5011669;28;20033;-85
2023/05/19 06:36:19;;;;;;;15.05;6.22;;;10.10;99.90;;;;;;5014085;28;20045;-86
2023/05/19 06:38:44;;;;;;;13.73;5.93;;;10.20;99.90;;;;;;5019123;28;20033;-86
2023/05/19 06:41:11;;;;;;;13.57;5.82;;;10.20;99.90;;;;;;5009955;28;20651;-86
2023/05/19 06:43:37;;;;;;;11.82;5.10;;;10.30;99.90;;;;;;5015322;28;20044;-86
2023/05/19 06:46:03;;;;;;;9.75;4.30;;;10.30;99.90;;;;;;5014612;28;20041;-86
2023/05/19 06:48:29;;;;;;;10.30;4.30;;;10.40;99.90;;;;;;5011021;28;20037;-86
2023/05/19 06:50:55;;;;;;;8.32;4.05;;;10.50;99.90;;;;;;5014876;28;20046;-86
2023/05/19 06:53:20;;;;;;;11.85;5.00;;;10.50;99.90;;;;;;5011237;28;20041;-87
2023/05/19 06:55:49;;;;;;;11.70;4.13;;;10.60;99.90;;;;;;5008856;28;20105;-87
2023/05/19 06:58:15;;;;;;;11.05;3.88;;;10.70;99.90;;;;;;5008124;28;20046;-85
2023/05/19 07:00:42;;;;;;;8.15;3.95;;;10.70;99.90;;;;;;5008567;28;20042;-86
2023/05/19 07:03:07;;;;;;;8.02;3.78;;;10.70;99.90;;;;;;5008116;28;20084;-86
2023/05/19 07:05:33;;;;;;;10.65;3.58;;;10.80;99.90;;;;;;5012652;28;20113;-86
2023/05/19 07:07:58;;;;;;;9.27;3.75;;;10.80;99.90;;;;;;5009333;28;20392;-87
2023/05/19 07:10:24;;;;;;;11.45;3.80;;;10.90;99.90;;;;;;5008226;28;20533;-86
2023/05/19 07:12:50;;;;;;;10.98;3.35;;;11.10;99.90;;;;;;5009163;28;20049;-87
2023/05/19 07:15:15;;;;;;;12.27;3.70;;;11.30;99.90;;;;;;5012213;28;20515;-87
2023/05/19 07:17:41;;;;;;;11.27;3.20;;;11.50;99.90;;;;;;5012370;28;20041;-87
2023/05/19 07:20:08;;;;;;;9.38;3.10;;;11.80;99.90;;;;;;5018708;28;20050;-86
2023/05/19 07:22:35;;;;;;;11.20;3.50;;;12.10;99.90;;;;;;5013435;28;20046;-87
2023/05/19 07:25:00;;;;;;;13.18;3.80;;;12.40;99.90;;;;;;5011771;28;20046;-87
2023/05/19 07:27:26;;;;;;;11.82;3.40;;;12.70;99.90;;;;;;5015125;28;20496;-87
2023/05/19 07:29:52;;;;;;;7.75;3.47;;;13.00;99.90;;;;;;5011582;28;20049;-87
2023/05/19 07:32:17;;;;;;;8.55;2.53;;;13.30;99.90;;;;;;5011724;28;20037;-87
2023/05/19 07:34:43;;;;;;;8.25;2.83;;;13.50;99.90;;;;;;5019014;28;21015;-85
2023/05/19 07:37:09;;;;;;;13.55;3.10;;;13.80;99.90;;;;;;5014427;28;20392;-84
2023/05/19 07:39:34;;;;;;;8.02;3.17;;;13.90;99.90;;;;;;5017198;28;20072;-84
2023/05/19 07:42:00;;;;;;;10.07;3.00;;;14.10;99.90;;;;;;5015450;28;20042;-83
2023/05/19 07:44:26;;;;;;;7.30;2.85;;;14.30;99.90;;;;;;5019340;28;20502;-84
2023/05/19 07:46:55;;;;;;;9.07;2.95;;;14.50;99.90;;;;;;5021322;28;20041;-85
2023/05/19 07:49:20;;;;;;;11.52;3.38;;;14.60;99.90;;;;;;5021101;28;20033;-85
2023/05/19 07:51:46;;;;;;;9.55;2.83;;;14.70;99.90;;;;;;5015063;28;20048;-85
2023/05/19 07:54:12;;;;;;;6.80;2.33;;;14.80;99.90;;;;;;5014655;28;20041;-85
2023/05/19 07:56:37;;;;;;;8.70;2.58;;;15.00;99.90;;;;;;5016990;28;20141;-85
2023/05/19 07:59:03;;;;;;;11.00;2.45;;;15.10;99.90;;;;;;5015316;28;20548;-86
2023/05/19 08:01:29;;;;;;;10.05;2.60;;;15.10;99.90;;;;;;5013096;28;20033;-87
2023/05/19 08:03:56;;;;;;;9.13;2.30;;;15.20;99.90;;;;;;5014689;28;20088;-85
2023/05/19 08:06:22;;;;;;;8.20;2.47;;;15.30;99.90;;;;;;5023872;28;20068;-85
2023/05/19 08:08:47;;;;;;;10.75;3.10;;;15.30;99.90;;;;;;5015630;28;20036;-85
2023/05/19 08:11:13;;;;;;;8.32;2.70;;;15.30;99.90;;;;;;5017167;28;20076;-85
2023/05/19 08:13:38;;;;;;;6.95;2.17;;;15.30;99.90;;;;;;5013988;28;20113;-85
2023/05/19 08:16:04;;;;;;;8.40;2.80;;;15.50;99.90;;;;;;5017819;28;20042;-86
2023/05/19 08:18:30;;;;;;;10.65;2.53;;;15.40;99.90;;;;;;5011181;28;20471;-82
2023/05/19 08:20:55;;;;;;;7.63;2.08;;;15.50;99.90;;;;;;5010433;28;20045;-83
2023/05/19 08:23:21;;;;;;;7.47;2.13;;;15.50;99.90;;;;;;5011466;28;20034;-84
2023/05/19 08:25:47;;;;;;;14.20;2.55;;;15.50;99.90;;;;;;5011817;28;20164;-88
2023/05/19 08:28:12;;;;;;;5.93;1.90;;;15.50;99.90;;;;;;5012553;28;20073;-81
2023/05/19 08:30:38;;;;;;;7.13;2.05;;;15.60;99.90;;;;;;5016471;28;20135;-82
2023/05/19 08:33:04;;;;;;;7.32;1.98;;;15.70;99.90;;;;;;5016526;28;20373;-83
2023/05/19 08:35:29;;;;;;;7.88;1.80;;;15.80;99.90;;;;;;5022619;28;20123;-85
2023/05/19 08:37:55;;;;;;;6.32;1.80;;;15.80;99.90;;;;;;5023193;28;20532;-86
2023/05/19 08:40:22;;;;;;;13.30;2.15;;;15.90;99.90;;;;;;5010449;28;20072;-85
2023/05/19 08:42:47;;;;;;;4.55;1.80;;;15.90;99.90;;;;;;5016849;28;20026;-86
2023/05/19 08:45:13;;;;;;;7.63;2.17;;;16.00;99.90;;;;;;5015065;28;20033;-85
2023/05/19 08:47:41;;;;;;;8.93;1.95;;;16.00;99.90;;;;;;5020810;28;20754;-84
2023/05/19 08:50:09;;;;;;;8.82;1.83;;;16.10;99.90;;;;;;5012359;28;20046;-85
2023/05/19 08:53:06;;;;;;;6.60;2.00;;;16.20;99.90;;;;;;5015640;28;20038;-85
2023/05/19 08:55:52;;;;;;;7.28;1.70;;;16.30;99.90;;;;;;5009839;28;20042;-86
2023/05/19 08:58:19;;;;;;;6.32;1.63;;;16.40;99.90;;;;;;5017679;28;20052;-85
2023/05/19 09:00:46;;;;;;;5.68;1.30;;;16.40;99.90;;;;;;5014420;28;20125;-85
2023/05/19 09:03:14;;;;;;;6.78;2.33;;;16.40;99.90;;;;;;5026135;28;20049;-85
2023/05/19 09:05:40;;;;;;;4.28;1.30;;;16.50;99.90;;;;;;5016630;28;20496;-84
2023/05/19 09:08:06;;;;;;;3.85;1.55;;;16.50;99.90;;;;;;5013221;28;20046;-81
2023/05/19 09:10:32;;;;;;;6.60;1.80;;;16.70;99.80;;;;;;5012744;28;20045;-81
2023/05/19 09:12:58;;;;;;;6.20;1.85;;;16.60;98.50;;;;;;5020949;28;20041;-83
2023/05/19 09:15:26;;;;;;;7.47;1.70;;;16.70;99.50;;;;;;5010852;28;20132;-83
2023/05/19 09:18:08;;;;;;;8.32;1.70;;;16.80;99.40;;;;;;5009791;28;20037;-83
2023/05/19 09:20:39;;;;;;;6.47;1.60;;;16.80;97.10;;;;;;5010590;28;20511;-83
2023/05/19 09:23:05;;;;;;;5.22;1.73;;;16.90;98.20;;;;;;5012954;28;20053;-83
2023/05/19 09:25:31;;;;;;;7.18;1.50;;;16.90;98.20;;;;;;5011858;28;20045;-83
2023/05/19 09:27:56;;;;;;;7.00;2.00;;;16.90;98.40;;;;;;5011900;28;20042;-83
2023/05/19 09:30:23;;;;;;;6.93;1.80;;;17.10;98.20;;;;;;5015512;28;20038;-83
2023/05/19 09:32:50;;;;;;;8.57;1.92;;;17.10;97.90;;;;;;5010114;28;20523;-82
2023/05/19 09:35:18;;;;;;;7.72;1.92;;;17.20;97.50;;;;;;5011284;28;20485;-83
2023/05/19 09:37:45;;;;;;;6.68;1.80;;;17.30;97.20;;;;;;5012884;28;20041;-85
2023/05/19 09:40:14;;;;;;;6.22;2.10;;;17.50;97.10;;;;;;5011944;28;20177;-89
2023/05/19 09:42:41;;;;;;;9.90;2.00;;;17.60;96.70;;;;;;5011619;28;20056;-84
2023/05/19 09:45:08;;;;;;;7.93;1.75;;;17.60;96.70;;;;;;5023296;28;20061;-83
2023/05/19 09:47:35;;;;;;;7.25;2.22;;;17.60;96.60;;;;;;5011776;28;20041;-84
2023/05/19 09:50:01;;;;;;;5.10;2.05;;;17.70;95.80;;;;;;5008789;28;20049;-84
2023/05/19 09:52:27;;;;;;;8.77;2.17;;;17.70;96.00;;;;;;5007562;28;20029;-84
2023/05/19 09:54:54;;;;;;;4.18;1.65;;;17.80;96.20;;;;;;5008865;28;20034;-84
2023/05/19 09:57:27;;;;;;;5.68;1.75;;;17.90;96.70;;;;;;5009362;28;20088;-84
2023/05/19 09:59:55;;;;;;;5.50;2.05;;;18.00;96.30;;;;;;5010909;28;20073;-83
2023/05/19 10:02:24;;;;;;;5.88;2.30;;;18.10;96.00;;;;;;5009102;28;20113;-83
2023/05/19 10:04:51;;;;;;;5.65;2.05;;;18.10;95.30;;;;;;5008724;28;20485;-83
2023/05/19 10:07:18;;;;;;;7.00;1.90;;;18.20;94.10;;;;;;5012447;28;20064;-84
2023/05/19 10:09:44;;;;;;;5.75;1.88;;;18.20;95.90;;;;;;5009444;28;20049;-83
2023/05/19 10:12:12;;;;;;;9.82;2.05;;;18.20;95.90;;;;;;5008686;28;20073;-83
2023/05/19 10:14:37;;;;;;;8.85;1.98;;;18.30;95.20;;;;;;5008115;28;20092;-83
2023/05/19 10:17:03;;;;;;;5.60;1.95;;;18.30;95.60;;;;;;5008057;28;20451;-83
2023/05/19 10:19:29;;;;;;;10.02;2.17;;;18.40;95.50;;;;;;5014745;28;20050;-83
2023/05/19 10:21:55;;;;;;;8.95;2.15;;;18.40;94.80;;;;;;4990406;28;20100;-84
2023/05/19 10:24:21;;;;;;;8.00;2.15;;;18.50;93.60;;;;;;5012581;28;20061;-83
2023/05/19 10:26:58;;;;;;;7.32;2.35;;;18.60;94.80;;;;;;5008566;28;20033;-84
2023/05/19 10:29:29;;;;;;;7.72;2.13;;;18.70;94.60;;;;;;5007170;28;20045;-84
2023/05/19 10:31:59;;;;;;;6.68;1.98;;;18.80;94.70;;;;;;5010113;28;20049;-83
2023/05/19 10:35:03;;;;;;;7.53;2.20;;;18.90;95.50;;;;;;5009646;28;20056;-83
2023/05/19 10:37:50;;;;;;;11.23;3.22;;;19.00;95.70;;;;;;5014610;28;20045;-83
2023/05/19 10:40:25;;;;;;;7.50;2.00;;;19.10;95.20;;;;;;5008932;28;20042;-84
2023/05/19 10:43:25;;;;;;;10.65;2.63;;;19.20;95.00;;;;;;5012310;28;20747;-84
2023/05/19 10:45:52;;;;;;;7.07;2.35;;;19.30;94.70;;;;;;5011649;28;20045;-84
2023/05/19 10:48:20;;;;;;;7.18;2.45;;;19.40;94.60;;;;;;5010312;28;20092;-84
2023/05/19 10:50:46;;;;;;;7.75;2.80;;;19.40;94.10;;;;;;5018066;28;20107;-84
2023/05/19 10:53:21;;;;;;;10.95;2.50;;;19.40;95.00;;;;;;5018184;28;20052;-83
2023/05/19 10:55:51;;;;;;;8.10;2.25;;;19.60;94.90;;;;;;5019400;28;20547;-84
2023/05/19 10:58:35;;;;;;;8.80;2.63;;;19.70;94.30;;;;;;5017949;28;20041;-84
2023/05/19 11:01:01;;;;;;;10.25;2.75;;;19.80;94.10;;;;;;5012906;28;20041;-82
2023/05/19 11:03:27;;;;;;;5.30;2.45;;;19.90;93.90;;;;;;5015247;28;20034;-84
2023/05/19 11:06:26;;;;;;;12.70;5.38;;;19.90;93.90;;;;;;5014083;28;20038;-84
2023/05/19 11:09:20;;;;;;;4.45;1.90;;;20.00;92.60;;;;;;5017946;28;20037;-84
2023/05/19 11:11:53;;;;;;;9.52;2.40;;;20.00;93.10;;;;;;5013250;28;20038;-84
2023/05/19 11:14:25;;;;;;;5.60;2.30;;;20.10;92.60;;;;;;5016605;28;20038;-83
2023/05/19 11:16:55;;;;;;;6.05;2.53;;;20.20;93.20;;;;;;5014977;28;20057;-84
2023/05/19 11:19:31;;;;;;;7.07;2.22;;;20.20;94.10;;;;;;5016293;28;20113;-84
2023/05/19 11:22:11;;;;;;;7.63;2.70;;;20.30;94.20;;;;;;5016628;28;20045;-83
2023/05/19 11:24:44;;;;;;;9.90;2.65;;;20.40;93.00;;;;;;5018535;28;20049;-83
2023/05/19 11:27:24;;;;;;;7.75;2.83;;;20.40;93.30;;;;;;5018785;28;20045;-83
2023/05/19 11:29:51;;;;;;;7.70;2.53;;;20.50;93.10;;;;;;5019026;28;20117;-84
2023/05/19 11:32:18;;;;;;;4.60;1.98;;;20.50;93.00;;;;;;5017032;28;20076;-83
2023/05/19 11:34:44;;;;;;;7.43;2.28;;;20.40;93.50;;;;;;5018621;28;20056;-83
2023/05/19 11:37:11;;;;;;;9.20;2.40;;;20.40;93.50;;;;;;5015135;28;20096;-85
2023/05/19 11:39:38;;;;;;;8.13;2.70;;;20.40;93.30;;;;;;5015313;28;20109;-84
2023/05/19 11:42:03;;;;;;;9.27;3.00;;;20.50;92.40;;;;;;5013382;28;20510;-85
2023/05/19 11:44:30;;;;;;;8.00;2.50;;;20.50;93.40;;;;;;5006496;28;20084;-84
2023/05/19 11:46:57;;;;;;;9.68;2.65;;;20.60;93.10;;;;;;5020547;28;20052;-84
2023/05/19 11:49:22;;;;;;;7.22;2.40;;;20.70;93.00;;;;;;5026273;28;20042;-84
2023/05/19 11:51:48;;;;;;;10.07;2.80;;;20.80;93.40;;;;;;5018884;28;20401;-84
2023/05/19 11:54:14;;;;;;;6.47;2.30;;;20.80;93.20;;;;;;5013902;28;20050;-84
2023/05/19 11:56:42;;;;;;;8.10;2.80;;;20.90;93.70;;;;;;5020848;28;20389;-84
2023/05/19 11:59:08;;;;;;;7.95;3.10;;;20.90;93.20;;;;;;5015312;28;20068;-84
2023/05/19 12:01:35;;;;;;;8.70;2.70;;;20.90;92.80;;;;;;5026429;28;20473;-83
2023/05/19 12:04:08;;;;;;;8.88;3.15;;;20.90;92.90;;;;;;5015328;28;20065;-84
2023/05/19 12:06:35;;;;;;;10.57;3.05;;;20.90;93.80;;;;;;5011095;28;20033;-84
2023/05/19 12:09:01;;;;;;;11.38;3.03;;;21.00;93.40;;;;;;5011288;28;20084;-83
2023/05/19 12:11:27;;;;;;;8.93;2.97;;;21.20;93.40;;;;;;5013204;28;20436;-86
2023/05/19 12:14:01;;;;;;;6.18;2.40;;;21.30;93.60;;;;;;5014677;28;20076;-84
2023/05/19 12:16:34;;;;;;;7.65;2.80;;;21.40;92.50;;;;;;5012827;28;20045;-83
2023/05/19 12:19:00;;;;;;;9.68;2.83;;;21.40;91.80;;;;;;5010229;28;20046;-81
2023/05/19 12:21:26;;;;;;;8.73;2.65;;;21.40;92.50;;;;;;5012930;28;20065;-80
2023/05/19 12:23:52;;;;;;;10.02;2.63;;;21.40;93.00;;;;;;5014713;28;20039;-82
2023/05/19 12:26:18;;;;;;;10.10;3.00;;;21.40;93.40;;;;;;5014965;28;20037;-81
2023/05/19 12:28:49;;;;;;;8.50;2.60;;;21.40;94.10;;;;;;5024332;28;20108;-81
2023/05/19 12:31:15;;;;;;;10.05;2.72;;;21.50;93.30;;;;;;5018194;28;20480;-82
2023/05/19 12:33:42;;;;;;;8.52;2.53;;;21.50;92.90;;;;;;5013817;28;20209;-82
2023/05/19 12:36:08;;;;;;;9.93;2.40;;;21.50;93.60;;;;;;5013142;28;20041;-83
2023/05/19 12:38:36;;;;;;;10.40;3.75;;;21.50;92.50;;;;;;5015028;28;20484;-83
2023/05/19 12:41:01;;;;;;;9.45;2.85;;;21.60;93.20;;;;;;4999608;28;20619;-85
2023/05/19 12:43:27;;;;;;;9.93;2.17;;;21.60;93.20;;;;;;5019094;28;20041;-84
2023/05/19 12:45:53;;;;;;;7.32;2.75;;;21.70;93.70;;;;;;5015101;28;20045;-81
2023/05/19 12:48:21;;;;;;;6.82;2.42;;;21.80;93.50;;;;;;5018367;28;21661;-80
2023/05/19 12:50:48;;;;;;;10.50;2.67;;;21.90;93.40;;;;;;5022048;28;20044;-82